createdAt,value
2023-08-25T00:01:40.014Z,14.65
2023-08-25T00:04:06.852Z,14.82
2023-08-25T00:06:33.634Z,14.10
2023-08-25T00:09:00.432Z,13.70
2023-08-25T00:11:27.231Z,13.88
2023-08-25T00:13:54.017Z,13.40
2023-08-25T00:16:20.851Z,14.48
2023-08-25T00:18:48.914Z,13.60
2023-08-25T00:21:16.008Z,13.10
2023-08-25T00:23:42.817Z,13.70
2023-08-25T00:26:09.584Z,13.48
2023-08-25T00:28:36.728Z,13.70
2023-08-25T00:31:03.817Z,15.13
2023-08-25T00:33:30.733Z,14.82
2023-08-25T00:35:57.590Z,14.38
2023-08-25T00:38:29.393Z,13.38
2023-08-25T00:41:00.238Z,14.18
2023-08-25T00:43:27.910Z,16.05
2023-08-25T00:45:54.833Z,15.40
2023-08-25T00:48:21.707Z,15.20
2023-08-25T00:50:49.545Z,15.98
2023-08-25T00:53:16.455Z,15.35
2023-08-25T00:55:43.329Z,14.95
2023-08-25T00:58:10.763Z,14.75
2023-08-25T01:00:38.107Z,14.85
2023-08-25T01:03:05.416Z,13.95
2023-08-25T01:05:32.358Z,13.52
2023-08-25T01:08:00.026Z,13.25
2023-08-25T01:10:46.147Z,13.52
2023-08-25T01:13:21.346Z,12.35
2023-08-25T01:15:53.816Z,10.30
2023-08-25T01:18:26.380Z,10.38
2023-08-25T01:20:55.973Z,9.27
2023-08-25T01:23:31.761Z,9.80
2023-08-25T01:25:59.445Z,8.25
2023-08-25T01:28:26.872Z,8.13
2023-08-25T01:33:25.466Z,7.07
2023-08-25T01:36:07.261Z,7.10
2023-08-25T01:38:41.958Z,6.28
2023-08-25T01:41:20.651Z,5.18
2023-08-25T01:46:20.539Z,3.40
2023-08-25T01:48:51.069Z,2.65
2023-08-25T01:51:18.241Z,3.00
2023-08-25T01:53:45.426Z,3.35
2023-08-25T01:56:14.046Z,3.53
2023-08-25T01:58:40.844Z,4.13
2023-08-25T02:01:07.674Z,3.60
2023-08-25T02:03:34.502Z,2.70
2023-08-25T02:06:01.382Z,2.40
2023-08-25T02:08:28.226Z,2.40
2023-08-25T02:10:55.130Z,2.03
2023-08-25T02:13:23.959Z,2.28
2023-08-25T02:15:53.153Z,2.22
2023-08-25T02:18:20.002Z,2.17
2023-08-25T02:20:46.967Z,1.80
2023-08-25T02:23:14.061Z,2.40
2023-08-25T02:25:42.478Z,2.45
2023-08-25T02:28:10.027Z,2.15
2023-08-25T02:30:36.821Z,2.58
2023-08-25T02:33:03.926Z,2.30
2023-08-25T02:35:30.695Z,4.47
2023-08-25T02:38:05.544Z,4.40
2023-08-25T02:40:33.939Z,5.10
2023-08-25T02:43:02.656Z,5.10
2023-08-25T02:45:29.720Z,4.47
2023-08-25T02:47:58.046Z,6.10
2023-08-25T02:50:25.578Z,5.53
2023-08-25T02:52:53.180Z,6.00
2023-08-25T02:55:22.631Z,5.25
2023-08-25T02:57:51.538Z,5.82
2023-08-25T03:00:27.250Z,5.55
2023-08-25T03:02:55.879Z,5.40
2023-08-25T03:05:23.979Z,4.72
2023-08-25T03:07:55.199Z,5.53
2023-08-25T03:10:24.145Z,5.20
2023-08-25T03:12:52.511Z,5.18
2023-08-25T03:15:19.434Z,5.85
2023-08-25T03:17:46.473Z,4.95
2023-08-25T03:20:13.254Z,5.03
2023-08-25T03:22:40.238Z,4.50
2023-08-25T03:25:07.878Z,4.53
2023-08-25T03:27:36.055Z,4.22
2023-08-25T03:30:03.613Z,4.45
2023-08-25T03:32:31.693Z,3.92
2023-08-25T03:34:58.570Z,4.15
2023-08-25T03:37:25.786Z,4.13
2023-08-25T03:39:53.396Z,4.22
2023-08-25T03:42:20.863Z,3.80
2023-08-25T03:44:49.331Z,3.75
2023-08-25T03:47:16.213Z,4.10
2023-08-25T03:49:43.025Z,3.70
2023-08-25T03:52:10.157Z,4.10
2023-08-25T03:54:37.077Z,4.45
2023-08-25T03:57:08.031Z,4.18
2023-08-25T03:59:35.088Z,3.50
2023-08-25T04:02:05.040Z,4.32
2023-08-25T04:04:33.203Z,3.95
2023-08-25T04:07:00.291Z,3.47
2023-08-25T04:09:27.999Z,3.90
2023-08-25T04:11:58.250Z,3.63
2023-08-25T04:14:25.358Z,3.75
2023-08-25T04:16:52.381Z,3.40
2023-08-25T04:19:22.547Z,3.17
2023-08-25T04:21:50.782Z,3.78
2023-08-25T04:24:18.053Z,3.53
2023-08-25T04:26:45.163Z,4.70
2023-08-25T04:29:12.668Z,4.70
2023-08-25T04:31:41.150Z,4.28
2023-08-25T04:34:09.479Z,4.25
2023-08-25T04:36:38.501Z,3.70
2023-08-25T04:39:05.342Z,3.70
2023-08-25T04:41:32.961Z,3.33
2023-08-25T04:44:00.348Z,3.88
2023-08-25T04:46:29.659Z,3.50
2023-08-25T04:48:58.072Z,3.88
2023-08-25T04:51:25.613Z,3.30
2023-08-25T04:53:52.830Z,4.30
2023-08-25T04:56:20.241Z,5.25
2023-08-25T04:58:47.143Z,4.47
2023-08-25T05:01:15.467Z,4.55
2023-08-25T05:03:43.826Z,5.15
2023-08-25T05:06:12.568Z,5.63
2023-08-25T05:08:39.458Z,5.70
2023-08-25T05:11:07.357Z,5.63
2023-08-25T05:13:34.199Z,5.50
2023-08-25T05:16:03.440Z,5.47
2023-08-25T05:18:50.501Z,5.47
2023-08-25T05:21:17.366Z,5.10
2023-08-25T05:23:48.599Z,4.90
2023-08-25T05:26:16.797Z,5.03
2023-08-25T05:28:52.854Z,4.47
2023-08-25T05:31:19.806Z,4.70
2023-08-25T05:34:05.842Z,5.75
2023-08-25T05:36:35.482Z,5.63
2023-08-25T05:39:03.580Z,6.63
2023-08-25T05:41:30.545Z,6.13
2023-08-25T05:43:57.588Z,6.63
2023-08-25T05:46:24.423Z,5.90
2023-08-25T05:48:51.328Z,5.95
2023-08-25T05:51:18.219Z,6.15
2023-08-25T05:53:45.775Z,5.53
2023-08-25T05:56:12.586Z,5.50
2023-08-25T05:58:39.337Z,5.13
2023-08-25T06:01:06.162Z,5.00
2023-08-25T06:03:33.463Z,5.22
2023-08-25T06:06:00.307Z,4.60
2023-08-25T06:08:27.569Z,4.82
2023-08-25T06:10:54.993Z,5.00
2023-08-25T06:13:21.856Z,5.18
2023-08-25T06:15:50.144Z,4.70
2023-08-25T06:18:17.524Z,5.57
2023-08-25T06:20:44.409Z,5.00
2023-08-25T06:23:12.985Z,5.55
2023-08-25T06:25:39.845Z,5.30
2023-08-25T06:28:06.907Z,5.53
2023-08-25T06:30:37.197Z,5.88
2023-08-25T06:33:04.058Z,5.75
2023-08-25T06:35:30.863Z,5.57
2023-08-25T06:37:57.664Z,5.30
2023-08-25T06:40:24.552Z,5.15
2023-08-25T06:42:51.382Z,5.15
2023-08-25T06:45:18.211Z,5.05
2023-08-25T06:47:47.004Z,5.47
2023-08-25T06:50:15.626Z,5.50
2023-08-25T06:52:42.542Z,5.82
2023-08-25T06:55:09.501Z,5.60
2023-08-25T06:57:36.726Z,5.57
2023-08-25T07:00:06.358Z,5.47
2023-08-25T07:02:33.385Z,4.75
2023-08-25T07:05:00.293Z,4.05
2023-08-25T07:07:27.710Z,3.30
2023-08-25T07:09:55.231Z,3.47
2023-08-25T07:12:22.044Z,3.50
2023-08-25T07:14:49.072Z,3.50
2023-08-25T07:17:15.828Z,3.20
2023-08-25T07:19:42.643Z,4.60
2023-08-25T07:22:09.841Z,4.78
2023-08-25T07:24:36.737Z,4.05
2023-08-25T07:27:03.586Z,3.80
2023-08-25T07:29:30.479Z,4.40
2023-08-25T07:31:58.012Z,4.38
2023-08-25T07:34:24.864Z,4.30
2023-08-25T07:36:53.902Z,4.10
2023-08-25T07:39:21.019Z,4.32
2023-08-25T07:41:47.794Z,4.75
2023-08-25T07:44:14.949Z,4.18
2023-08-25T07:46:41.838Z,3.97
2023-08-25T07:49:11.410Z,4.18
2023-08-25T07:51:40.765Z,4.60
2023-08-25T07:54:08.651Z,4.15
2023-08-25T07:56:35.500Z,4.68
2023-08-25T07:59:02.400Z,5.03
2023-08-25T08:01:29.312Z,4.20
2023-08-25T08:03:56.175Z,4.18
2023-08-25T08:06:22.972Z,4.68
2023-08-25T08:08:49.901Z,4.22
2023-08-25T08:11:16.716Z,4.50
2023-08-25T08:13:43.644Z,4.38
2023-08-25T08:16:10.514Z,4.82
2023-08-25T08:18:37.444Z,4.80
2023-08-25T08:21:04.297Z,4.80
2023-08-25T08:23:31.100Z,4.95
2023-08-25T08:25:59.608Z,4.70
2023-08-25T08:28:26.621Z,5.60
2023-08-25T08:30:53.476Z,5.15
2023-08-25T08:33:20.362Z,4.55
2023-08-25T08:35:47.286Z,5.45
2023-08-25T08:38:14.130Z,5.05
2023-08-25T08:40:41.836Z,5.05
2023-08-25T08:43:15.988Z,5.20
2023-08-25T08:45:44.483Z,5.32
2023-08-25T08:48:13.637Z,5.07
2023-08-25T08:50:40.923Z,5.40
2023-08-25T08:53:09.325Z,4.97
2023-08-25T08:55:36.727Z,5.28
2023-08-25T08:58:05.244Z,5.20
2023-08-25T09:00:32.924Z,5.90
2023-08-25T09:03:06.052Z,4.70
2023-08-25T09:05:35.765Z,4.80
2023-08-25T09:08:08.790Z,5.10
2023-08-25T09:10:35.758Z,5.38
2023-08-25T09:13:03.318Z,5.55
2023-08-25T09:15:34.338Z,5.68
2023-08-25T09:18:08.995Z,5.93
2023-08-25T09:20:40.085Z,6.60
2023-08-25T09:23:09.308Z,6.30
2023-08-25T09:25:36.427Z,6.25
2023-08-25T09:28:04.951Z,6.60
2023-08-25T09:30:36.748Z,6.30
2023-08-25T09:33:09.584Z,6.82
2023-08-25T09:35:37.141Z,7.20
2023-08-25T09:38:04.468Z,7.47
2023-08-25T09:40:32.501Z,7.55
2023-08-25T09:43:05.238Z,7.35
2023-08-25T09:45:34.251Z,7.25
2023-08-25T09:48:17.674Z,7.63
2023-08-25T09:50:45.718Z,7.65
2023-08-25T09:53:16.231Z,7.53
2023-08-25T09:55:43.633Z,7.82
2023-08-25T09:58:13.315Z,7.55
2023-08-25T10:00:41.238Z,7.88
2023-08-25T10:03:10.379Z,7.70
2023-08-25T10:05:42.706Z,7.93
2023-08-25T10:08:10.561Z,7.72
2023-08-25T10:10:39.546Z,7.45
2023-08-25T10:13:08.991Z,7.50
2023-08-25T10:15:38.431Z,7.60
2023-08-25T10:18:08.668Z,7.65
2023-08-25T10:20:37.326Z,7.55
2023-08-25T10:23:11.033Z,7.72
2023-08-25T10:25:39.573Z,7.00
2023-08-25T10:28:09.414Z,7.20
2023-08-25T10:30:37.181Z,6.97
2023-08-25T10:33:10.326Z,7.63
2023-08-25T10:35:50.538Z,7.57
2023-08-25T10:38:20.519Z,7.22
2023-08-25T10:40:55.118Z,7.28
2023-08-25T10:43:33.652Z,7.25
2023-08-25T10:46:08.603Z,7.13
2023-08-25T10:48:37.689Z,6.68
2023-08-25T10:51:12.038Z,6.38
2023-08-25T10:53:43.258Z,6.95
2023-08-25T10:56:18.292Z,6.93
2023-08-25T10:59:06.586Z,6.82
2023-08-25T11:01:58.953Z,7.00
2023-08-25T11:04:28.995Z,6.88
2023-08-25T11:07:00.289Z,7.90
2023-08-25T11:09:53.283Z,7.07
2023-08-25T11:12:26.046Z,6.82
2023-08-25T11:14:52.871Z,6.70
2023-08-25T11:17:19.717Z,6.88
2023-08-25T11:19:47.100Z,7.78
2023-08-25T11:22:14.026Z,7.80
2023-08-25T11:24:41.154Z,6.88
2023-08-25T11:27:12.044Z,7.55
2023-08-25T11:29:46.156Z,7.40
2023-08-25T11:32:14.551Z,7.35
2023-08-25T11:34:41.681Z,7.25
2023-08-25T11:37:13.183Z,7.47
2023-08-25T11:39:43.820Z,6.90
2023-08-25T11:42:10.834Z,7.15
2023-08-25T11:44:44.522Z,6.70
2023-08-25T11:47:11.526Z,7.10
2023-08-25T11:49:40.045Z,6.80
2023-08-25T11:52:08.009Z,7.45
2023-08-25T11:54:50.738Z,6.78
2023-08-25T11:57:18.306Z,7.10
2023-08-25T11:59:48.704Z,7.05
2023-08-25T12:02:19.584Z,6.90
2023-08-25T12:05:12.446Z,7.45
2023-08-25T12:07:39.251Z,7.00
2023-08-25T12:10:06.495Z,6.70
2023-08-25T12:12:39.333Z,6.72
2023-08-25T12:15:10.130Z,7.10
2023-08-25T12:17:38.003Z,7.22
2023-08-25T12:20:18.825Z,7.32
2023-08-25T12:25:19.162Z,7.07
2023-08-25T12:27:46.021Z,7.15
2023-08-25T12:30:13.370Z,7.20
2023-08-25T12:32:40.667Z,7.03
2023-08-25T12:35:07.779Z,7.13
2023-08-25T12:37:34.665Z,6.82
2023-08-25T12:40:01.525Z,6.65
2023-08-25T12:42:28.402Z,7.68
2023-08-25T12:44:55.168Z,7.38
2023-08-25T12:47:21.956Z,7.60
2023-08-25T12:49:48.831Z,7.72
2023-08-25T12:52:18.157Z,7.10
2023-08-25T12:54:45.131Z,6.60
2023-08-25T12:57:11.894Z,7.07
2023-08-25T12:59:39.550Z,6.45
2023-08-25T13:02:06.740Z,7.50
2023-08-25T13:04:33.508Z,7.43
2023-08-25T13:07:00.401Z,6.60
2023-08-25T13:09:27.170Z,7.28
2023-08-25T13:11:53.959Z,7.13
2023-08-25T13:14:21.590Z,7.10
2023-08-25T13:16:48.416Z,7.00
2023-08-25T13:19:15.425Z,6.70
2023-08-25T13:21:42.259Z,7.13
2023-08-25T13:24:09.904Z,6.90
2023-08-25T13:26:37.403Z,7.20
2023-08-25T13:29:04.960Z,7.20
2023-08-25T13:31:32.095Z,6.75
2023-08-25T13:33:58.927Z,6.97
2023-08-25T13:36:25.747Z,6.90
2023-08-25T13:38:52.529Z,6.13
2023-08-25T13:41:19.628Z,6.93
2023-08-25T13:43:46.481Z,6.78
2023-08-25T13:46:13.422Z,6.80
2023-08-25T13:48:40.346Z,6.80
2023-08-25T13:51:07.199Z,6.35
2023-08-25T13:53:34.075Z,7.03
2023-08-25T13:56:02.223Z,6.68
2023-08-25T13:58:29.735Z,6.70
2023-08-25T14:00:56.562Z,6.50
2023-08-25T14:03:25.623Z,6.20
2023-08-25T14:05:52.651Z,6.60
2023-08-25T14:08:19.592Z,6.53
2023-08-25T14:10:46.442Z,6.68
2023-08-25T14:13:13.319Z,6.75
2023-08-25T14:15:40.151Z,6.25
2023-08-25T14:18:07.482Z,6.50
2023-08-25T14:20:34.365Z,6.57
2023-08-25T14:23:04.019Z,6.30
2023-08-25T14:25:31.337Z,7.57
2023-08-25T14:28:00.364Z,6.43
2023-08-25T14:30:27.352Z,7.15
2023-08-25T14:32:54.253Z,6.10
2023-08-25T14:35:21.094Z,6.45
2023-08-25T14:37:47.870Z,6.93
2023-08-25T14:40:14.715Z,7.35
2023-08-25T14:42:41.515Z,7.30
2023-08-25T14:45:08.937Z,6.78
2023-08-25T14:47:35.948Z,7.10
2023-08-25T14:50:02.792Z,7.18
2023-08-25T14:52:30.118Z,6.95
2023-08-25T14:54:57.061Z,7.22
2023-08-25T14:57:23.873Z,7.40
2023-08-25T14:59:51.978Z,7.72
2023-08-25T15:02:19.403Z,7.13
2023-08-25T15:04:46.320Z,7.03
2023-08-25T15:07:13.136Z,7.95
2023-08-25T15:09:42.793Z,7.80
2023-08-25T15:12:09.639Z,7.70
2023-08-25T15:14:36.460Z,7.82
2023-08-25T15:17:03.354Z,8.77
2023-08-25T15:19:30.148Z,8.32
2023-08-25T15:21:57.012Z,8.35
2023-08-25T15:24:23.777Z,8.43
2023-08-25T15:26:50.579Z,8.25
2023-08-25T15:29:17.390Z,8.38
2023-08-25T15:31:44.295Z,8.57
2023-08-25T15:34:11.538Z,8.52
2023-08-25T15:36:38.479Z,8.65
2023-08-25T15:39:05.499Z,7.97
2023-08-25T15:41:37.557Z,8.40
2023-08-25T15:44:05.033Z,8.48
2023-08-25T15:46:31.857Z,8.68
2023-08-25T15:48:58.825Z,8.57
2023-08-25T15:51:25.704Z,8.70
2023-08-25T15:53:52.465Z,9.27
2023-08-25T15:56:19.624Z,8.57
2023-08-25T15:58:46.477Z,7.85
2023-08-25T16:01:13.628Z,8.65
2023-08-25T16:03:40.672Z,8.70
2023-08-25T16:06:08.442Z,8.35
2023-08-25T16:08:35.255Z,8.07
2023-08-25T16:11:03.905Z,8.25
2023-08-25T16:13:31.517Z,8.32
2023-08-25T16:15:59.169Z,8.73
2023-08-25T16:18:26.276Z,7.88
2023-08-25T16:20:53.449Z,8.13
2023-08-25T16:23:20.528Z,8.25
2023-08-25T16:25:47.466Z,8.98
2023-08-25T16:28:14.327Z,8.70
2023-08-25T16:30:41.228Z,8.98
2023-08-25T16:33:08.175Z,8.43
2023-08-25T16:35:35.122Z,9.25
2023-08-25T16:38:04.468Z,9.10
2023-08-25T16:40:31.348Z,9.07
2023-08-25T16:43:01.112Z,9.20
2023-08-25T16:45:29.114Z,9.73
2023-08-25T16:47:57.524Z,9.27
2023-08-25T16:50:25.769Z,10.00
2023-08-25T16:52:53.004Z,9.60
2023-08-25T16:55:20.155Z,9.88
2023-08-25T16:57:47.037Z,10.15
2023-08-25T17:00:14.310Z,9.85
2023-08-25T17:02:41.196Z,9.43
2023-08-25T17:05:08.370Z,10.02
2023-08-25T17:07:49.991Z,9.50
2023-08-25T17:10:18.246Z,9.35
2023-08-25T17:12:45.830Z,9.98
2023-08-25T17:15:14.707Z,9.65
2023-08-25T17:17:41.541Z,9.40
2023-08-25T17:20:11.149Z,9.73
2023-08-25T17:22:39.355Z,10.18
2023-08-25T17:25:12.393Z,10.10
2023-08-25T17:27:40.637Z,10.00
2023-08-25T17:30:11.878Z,10.00
2023-08-25T17:32:40.239Z,10.57
2023-08-25T17:35:07.461Z,10.15
2023-08-25T17:37:34.359Z,10.85
2023-08-25T17:40:02.253Z,10.75
2023-08-25T17:42:29.377Z,10.55
2023-08-25T17:44:56.839Z,10.68
2023-08-25T17:47:24.502Z,11.07
2023-08-25T17:49:53.035Z,10.98
2023-08-25T17:52:20.025Z,11.63
2023-08-25T17:54:46.801Z,11.82
2023-08-25T17:57:15.719Z,10.82
2023-08-25T17:59:43.250Z,11.55
2023-08-25T18:02:11.378Z,10.85
2023-08-25T18:04:39.749Z,11.18
2023-08-25T18:07:07.189Z,10.50
2023-08-25T18:09:34.185Z,10.90
2023-08-25T18:12:04.013Z,11.15
2023-08-25T18:14:30.799Z,10.98
2023-08-25T18:16:57.655Z,10.93
2023-08-25T18:19:24.470Z,10.63
2023-08-25T18:21:51.426Z,9.95
2023-08-25T18:24:18.383Z,12.13
2023-08-25T18:26:45.345Z,11.48
2023-08-25T18:29:12.543Z,11.98
2023-08-25T18:31:39.618Z,11.38
2023-08-25T18:34:06.963Z,11.23
2023-08-25T18:36:33.944Z,11.52
2023-08-25T18:39:01.535Z,11.90
2023-08-25T18:41:28.576Z,11.70
2023-08-25T18:43:55.772Z,11.30
2023-08-25T18:46:23.040Z,10.95
2023-08-25T18:48:49.978Z,11.15
2023-08-25T18:51:16.959Z,11.32
2023-08-25T18:53:43.873Z,11.40
2023-08-25T18:56:12.750Z,10.73
2023-08-25T18:58:39.850Z,11.50
2023-08-25T19:01:06.882Z,11.95
2023-08-25T19:03:33.836Z,11.88
2023-08-25T19:06:05.063Z,12.25
2023-08-25T19:08:32.984Z,11.87
2023-08-25T19:11:00.611Z,12.32
2023-08-25T19:13:28.673Z,11.82
2023-08-25T19:15:57.212Z,11.68
2023-08-25T19:18:24.462Z,12.18
2023-08-25T19:20:51.329Z,12.25
2023-08-25T19:23:18.414Z,11.70
2023-08-25T19:25:52.980Z,11.93
2023-08-25T19:28:20.021Z,12.00
2023-08-25T19:30:47.576Z,11.55
2023-08-25T19:33:14.913Z,11.77
2023-08-25T19:35:42.491Z,21.10
2023-08-25T19:38:10.705Z,18.25
2023-08-25T19:40:37.631Z,29.80
2023-08-25T19:43:04.635Z,13.85
2023-08-25T19:45:31.494Z,12.88
2023-08-25T19:47:58.395Z,11.63
2023-08-25T19:50:25.516Z,12.05
2023-08-25T19:52:52.455Z,11.63
2023-08-25T19:55:19.271Z,11.32
2023-08-25T19:57:46.115Z,11.57
2023-08-25T20:00:13.700Z,10.90
2023-08-25T20:02:40.816Z,12.02
2023-08-25T20:05:08.494Z,11.75
2023-08-25T20:07:36.266Z,11.15
2023-08-25T20:10:06.118Z,9.85
2023-08-25T20:12:37.080Z,11.30
2023-08-25T20:15:04.177Z,12.43
2023-08-25T20:17:31.009Z,13.02
2023-08-25T20:19:57.816Z,11.30
2023-08-25T20:22:24.618Z,8.88
2023-08-25T20:24:51.411Z,7.90
2023-08-25T20:27:18.216Z,9.82
2023-08-25T20:29:45.066Z,9.23
2023-08-25T20:32:13.093Z,7.80
2023-08-25T20:34:39.904Z,8.75
2023-08-25T20:37:06.714Z,7.63
2023-08-25T20:39:33.500Z,6.60
2023-08-25T20:42:00.316Z,6.70
2023-08-25T20:44:27.148Z,7.45
2023-08-25T20:46:53.969Z,6.40
2023-08-25T20:49:20.764Z,6.38
2023-08-25T20:51:47.577Z,6.95
2023-08-25T20:54:14.448Z,6.80
2023-08-25T20:56:41.225Z,6.63
2023-08-25T20:59:08.016Z,6.10
2023-08-25T21:01:35.301Z,6.63
2023-08-25T21:04:02.370Z,6.85
2023-08-25T21:06:33.951Z,7.07
2023-08-25T21:09:01.002Z,6.60
2023-08-25T21:11:28.926Z,6.95
2023-08-25T21:13:58.334Z,7.75
2023-08-25T21:16:26.163Z,7.88
2023-08-25T21:18:53.095Z,7.45
2023-08-25T21:21:20.026Z,7.10
2023-08-25T21:23:48.823Z,6.78
2023-08-25T21:26:15.669Z,7.60
2023-08-25T21:28:43.128Z,7.15
2023-08-25T21:31:09.951Z,7.60
2023-08-25T21:33:36.808Z,7.05
2023-08-25T21:36:04.260Z,7.53
2023-08-25T21:38:31.920Z,7.35
2023-08-25T21:41:00.292Z,7.10
2023-08-25T21:43:27.981Z,7.88
2023-08-25T21:45:54.850Z,7.50
2023-08-25T21:48:21.699Z,7.47
2023-08-25T21:50:48.692Z,8.30
2023-08-25T21:53:15.496Z,7.30
2023-08-25T21:55:44.238Z,7.55
2023-08-25T21:58:11.193Z,8.60
2023-08-25T22:00:39.217Z,8.55
2023-08-25T22:03:06.122Z,8.82
2023-08-25T22:05:32.983Z,8.93
2023-08-25T22:07:59.775Z,9.57
2023-08-25T22:10:26.666Z,9.48
2023-08-25T22:12:54.749Z,9.88
2023-08-25T22:15:22.758Z,9.77
2023-08-25T22:17:49.616Z,10.30
2023-08-25T22:20:16.564Z,9.73
2023-08-25T22:22:43.441Z,10.52
2023-08-25T22:25:10.639Z,9.25
2023-08-25T22:27:38.494Z,9.00
2023-08-25T22:30:05.950Z,8.63
2023-08-25T22:35:03.959Z,8.00
2023-08-25T22:37:30.825Z,8.55
2023-08-25T22:39:57.671Z,9.45
2023-08-25T22:42:24.447Z,10.00
2023-08-25T22:44:51.641Z,9.50
2023-08-25T22:47:18.513Z,8.32
2023-08-25T22:49:45.285Z,9.05
2023-08-25T22:52:12.096Z,8.93
2023-08-25T22:54:38.905Z,8.52
2023-08-25T22:57:05.699Z,8.68
2023-08-25T22:59:32.554Z,8.65
2023-08-25T23:02:01.168Z,8.88
2023-08-25T23:04:28.923Z,8.98
2023-08-25T23:06:55.723Z,8.43
2023-08-25T23:09:22.598Z,7.95
2023-08-25T23:11:49.437Z,8.75
2023-08-25T23:14:16.315Z,8.55
2023-08-25T23:16:43.116Z,8.52
2023-08-25T23:19:10.112Z,9.00
2023-08-25T23:21:37.013Z,8.48
2023-08-25T23:24:04.077Z,8.13
2023-08-25T23:26:30.936Z,8.90
2023-08-25T23:28:57.747Z,8.95
2023-08-25T23:31:24.560Z,7.63
2023-08-25T23:33:51.323Z,7.60
2023-08-25T23:36:18.123Z,8.50
2023-08-25T23:38:44.866Z,7.60
2023-08-25T23:41:11.800Z,8.25
2023-08-25T23:43:38.616Z,7.70
2023-08-25T23:46:07.719Z,9.23
2023-08-25T23:48:35.663Z,8.90
2023-08-25T23:51:02.559Z,9.18
2023-08-25T23:53:29.327Z,8.05
2023-08-25T23:55:56.308Z,8.52
2023-08-25T23:58:23.063Z,9.68
